Time;durP1;ratioP1;P1;durP2;ratioP2;P2;SDS_P1;SDS_P2;PMS_P1;PMS_P2;Temp;Humidity;BMP_temperature;BMP_pressure;BME280_temperature;BME280_humidity;BME280_pressure;Samples;Min_cycle;Max_cycle;Signal;HPM_P1;HPM_P2
2023/12/29 00:02:26;;;;;;;3.00;2.80;;;21.90;57.10;;;;;;4933362;29;21062;-84
2023/12/29 00:04:55;;;;;;;4.30;3.30;;;21.90;57.10;;;;;;4930901;29;20495;-86
2023/12/29 00:07:24;;;;;;;3.10;2.90;;;21.90;57.10;;;;;;4921874;29;20864;-84
2023/12/29 00:09:52;;;;;;;3.60;2.93;;;21.90;57.10;;;;;;4928298;29;21316;-84
2023/12/29 00:12:20;;;;;;;2.70;2.50;;;21.90;57.20;;;;;;4909648;29;20476;-88
2023/12/29 00:14:48;;;;;;;3.80;3.10;;;21.90;57.20;;;;;;4928794;29;20473;-84
2023/12/29 00:17:17;;;;;;;3.83;2.90;;;21.90;57.20;;;;;;4928046;29;20535;-84
2023/12/29 00:19:45;;;;;;;2.83;2.63;;;21.90;57.20;;;;;;4936373;29;20463;-84
2023/12/29 00:22:15;;;;;;;3.60;3.27;;;21.80;57.20;;;;;;4920860;29;20567;-84
2023/12/29 00:24:43;;;;;;;3.53;3.23;;;21.80;57.20;;;;;;4931118;29;20467;-83
2023/12/29 00:27:15;;;;;;;3.83;3.17;;;21.80;57.20;;;;;;4925437;29;20452;-84
2023/12/29 00:29:44;;;;;;;3.40;3.20;;;21.80;57.10;;;;;;4916576;29;21015;-84
2023/12/29 00:32:12;;;;;;;5.80;3.43;;;21.80;57.10;;;;;;4930777;29;20484;-83
2023/12/29 00:34:40;;;;;;;3.00;2.60;;;21.80;57.20;;;;;;4934639;29;20981;-85
2023/12/29 00:37:09;;;;;;;2.67;2.50;;;21.70;57.20;;;;;;4929725;29;20518;-84
2023/12/29 00:39:39;;;;;;;2.70;2.40;;;21.70;57.20;;;;;;4924205;29;21066;-84
2023/12/29 00:42:09;;;;;;;3.13;2.77;;;21.70;57.20;;;;;;4923898;29;20527;-84
2023/12/29 00:44:37;;;;;;;3.23;2.93;;;21.70;57.20;;;;;;4932099;29;20962;-85
2023/12/29 00:47:05;;;;;;;3.90;3.20;;;21.70;57.20;;;;;;4918775;29;20979;-85
2023/12/29 00:49:33;;;;;;;3.20;3.00;;;21.70;57.20;;;;;;4930531;29;20979;-84
2023/12/29 00:52:02;;;;;;;2.70;2.50;;;21.70;57.20;;;;;;4931182;29;20462;-84
2023/12/29 00:54:31;;;;;;;4.63;4.23;;;21.70;57.20;;;;;;4927830;29;20545;-84
2023/12/29 00:57:01;;;;;;;2.77;2.57;;;21.70;57.20;;;;;;4929252;29;20514;-84
2023/12/29 00:59:29;;;;;;;3.57;2.90;;;21.70;57.20;;;;;;4936835;29;20525;-84
2023/12/29 01:01:57;;;;;;;3.50;3.20;;;21.70;57.10;;;;;;4928723;29;20465;-83
2023/12/29 01:04:26;;;;;;;2.73;2.53;;;21.70;57.00;;;;;;4934719;29;20465;-84
2023/12/29 01:06:55;;;;;;;3.43;3.13;;;21.60;57.30;;;;;;4912282;29;20876;-87
2023/12/29 01:09:23;;;;;;;3.53;3.00;;;21.60;57.30;;;;;;4925378;29;20610;-83
2023/12/29 01:11:51;;;;;;;4.23;3.93;;;21.60;57.20;;;;;;4935852;29;20524;-84
2023/12/29 01:14:21;;;;;;;3.10;2.90;;;21.60;57.20;;;;;;4934758;29;20475;-84
2023/12/29 01:16:49;;;;;;;3.50;3.00;;;21.60;57.20;;;;;;4914940;29;20465;-84
2023/12/29 01:19:17;;;;;;;2.80;2.60;;;21.60;57.20;;;;;;4933410;29;20458;-83
2023/12/29 01:21:45;;;;;;;2.60;2.40;;;21.60;57.30;;;;;;4928237;29;20462;-84
2023/12/29 01:24:14;;;;;;;3.23;2.57;;;21.50;57.30;;;;;;4920497;29;20510;-84
2023/12/29 01:26:44;;;;;;;2.63;2.43;;;21.50;57.30;;;;;;4933963;29;20482;-84
2023/12/29 01:29:12;;;;;;;3.73;3.47;;;21.50;57.30;;;;;;4938345;29;20470;-84
2023/12/29 01:31:42;;;;;;;3.40;3.10;;;21.50;57.20;;;;;;4936881;29;20458;-85
2023/12/29 01:34:10;;;;;;;2.87;2.67;;;21.50;57.10;;;;;;4949840;29;20487;-87
2023/12/29 01:36:39;;;;;;;2.90;2.70;;;21.50;57.20;;;;;;4925389;29;20460;-84
2023/12/29 01:39:07;;;;;;;3.57;2.90;;;21.50;57.10;;;;;;4939089;29;20471;-83
2023/12/29 01:41:35;;;;;;;2.50;2.30;;;21.50;57.30;;;;;;4913007;29;20502;-85
2023/12/29 01:44:20;;;;;;;4.77;3.60;;;21.40;57.40;;;;;;4897592;29;20539;-84
2023/12/29 01:46:52;;;;;;;2.73;2.53;;;21.40;57.40;;;;;;4938099;29;20503;-87
2023/12/29 01:49:21;;;;;;;2.77;2.57;;;21.50;57.40;;;;;;4932980;29;20471;-84
2023/12/29 01:51:51;;;;;;;5.03;2.77;;;21.50;57.40;;;;;;4919800;29;20565;-84
2023/12/29 01:54:21;;;;;;;3.60;3.30;;;21.50;57.30;;;;;;4939432;29;20465;-83
2023/12/29 01:56:51;;;;;;;3.23;3.03;;;21.50;57.30;;;;;;4955280;29;20525;-84
2023/12/29 01:59:20;;;;;;;2.90;2.60;;;21.40;57.30;;;;;;4919885;29;20466;-83
2023/12/29 02:01:56;;;;;;;2.23;2.13;;;21.40;57.30;;;;;;4917684;29;20884;-85
2023/12/29 02:04:26;;;;;;;2.83;2.43;;;21.40;57.10;;;;;;4914617;29;21004;-83
2023/12/29 02:06:55;;;;;;;2.70;2.50;;;21.40;57.10;;;;;;4934778;29;20827;-83
2023/12/29 02:09:26;;;;;;;2.90;2.70;;;21.40;57.20;;;;;;4916676;29;20507;-84
2023/12/29 02:11:55;;;;;;;2.30;2.10;;;21.40;57.30;;;;;;4928052;29;20547;-86
2023/12/29 02:14:25;;;;;;;2.60;2.40;;;21.40;57.40;;;;;;4936822;29;20949;-83
2023/12/29 02:17:00;;;;;;;2.30;2.10;;;21.40;57.40;;;;;;4936206;29;20474;-84
2023/12/29 02:19:40;;;;;;;2.40;2.30;;;21.40;57.40;;;;;;4918879;29;20470;-83
2023/12/29 02:22:10;;;;;;;3.13;2.70;;;21.40;57.30;;;;;;4926295;29;20477;-84
2023/12/29 02:24:39;;;;;;;2.13;2.03;;;21.40;57.30;;;;;;4913306;29;20480;-85
2023/12/29 02:27:19;;;;;;;2.70;2.50;;;21.40;57.30;;;;;;4917213;29;20803;-87
2023/12/29 02:29:57;;;;;;;2.63;2.43;;;21.40;57.20;;;;;;4931691;29;20460;-83
2023/12/29 02:32:30;;;;;;;2.87;2.67;;;21.40;57.30;;;;;;4936197;29;20541;-88
2023/12/29 02:35:00;;;;;;;2.40;2.20;;;21.40;57.30;;;;;;4918241;29;20470;-85
2023/12/29 02:37:30;;;;;;;2.33;2.13;;;21.40;57.30;;;;;;4924284;29;20478;-84
2023/12/29 02:39:59;;;;;;;2.87;2.63;;;21.30;57.30;;;;;;4920421;29;20472;-83
2023/12/29 02:42:30;;;;;;;2.70;2.50;;;21.30;57.30;;;;;;4927260;29;20497;-89
2023/12/29 02:44:58;;;;;;;4.43;2.60;;;21.30;57.10;;;;;;4929046;29;20494;-84
2023/12/29 02:47:27;;;;;;;2.93;2.73;;;21.30;57.10;;;;;;4939013;29;20473;-84
2023/12/29 02:49:55;;;;;;;2.80;2.60;;;21.30;57.20;;;;;;4919658;29;20554;-87
2023/12/29 02:52:25;;;;;;;2.50;2.30;;;21.30;57.10;;;;;;4916680;29;20534;-84
2023/12/29 02:54:53;;;;;;;2.83;2.60;;;21.30;57.10;;;;;;4927204;29;20537;-85
2023/12/29 02:57:21;;;;;;;2.60;2.27;;;21.30;57.20;;;;;;4939035;29;20832;-84
2023/12/29 02:59:51;;;;;;;3.20;2.90;;;21.30;57.30;;;;;;4915150;29;20465;-84
2023/12/29 03:02:20;;;;;;;2.47;2.27;;;21.20;57.20;;;;;;4929874;29;20522;-85
2023/12/29 03:04:48;;;;;;;3.00;2.80;;;21.20;57.10;;;;;;4920586;29;20529;-83
2023/12/29 03:07:17;;;;;;;2.87;2.47;;;21.20;57.20;;;;;;4923257;29;20933;-84
2023/12/29 03:09:45;;;;;;;3.00;2.70;;;21.20;57.40;;;;;;4933679;29;20474;-83
2023/12/29 03:12:13;;;;;;;2.60;2.40;;;21.20;57.40;;;;;;4918455;29;20498;-84
2023/12/29 03:14:42;;;;;;;2.60;2.40;;;21.20;57.40;;;;;;4918491;29;20473;-83
2023/12/29 03:17:12;;;;;;;2.50;2.30;;;21.20;57.40;;;;;;4935761;29;20454;-84
2023/12/29 03:19:40;;;;;;;2.53;2.33;;;21.20;57.40;;;;;;4931072;29;20481;-88
2023/12/29 03:22:09;;;;;;;2.83;2.63;;;21.20;57.40;;;;;;4935678;29;20959;-84
2023/12/29 03:24:38;;;;;;;2.23;2.13;;;21.30;57.40;;;;;;4915747;29;20557;-83
2023/12/29 03:27:06;;;;;;;4.27;2.30;;;21.30;57.30;;;;;;4919512;29;20812;-85
2023/12/29 03:29:36;;;;;;;2.50;2.30;;;21.30;57.20;;;;;;4922620;29;20529;-85
2023/12/29 03:32:07;;;;;;;2.47;2.27;;;21.20;57.10;;;;;;4937585;29;20449;-83
2023/12/29 03:34:36;;;;;;;2.50;2.30;;;21.20;57.20;;;;;;4941521;29;20480;-85
2023/12/29 03:37:05;;;;;;;1.97;1.87;;;21.20;57.10;;;;;;4934911;29;20455;-91
2023/12/29 03:39:35;;;;;;;2.90;2.37;;;21.20;57.20;;;;;;4923405;29;20469;-83
2023/12/29 03:42:05;;;;;;;3.13;2.83;;;21.20;57.30;;;;;;4933021;29;20869;-84
2023/12/29 03:44:33;;;;;;;2.67;2.47;;;21.20;57.30;;;;;;4929683;28;20583;-84
2023/12/29 03:47:02;;;;;;;2.03;1.93;;;21.20;57.20;;;;;;4926283;29;20465;-84
2023/12/29 03:49:30;;;;;;;2.20;2.10;;;21.20;57.10;;;;;;4936966;29;20455;-83
2023/12/29 03:51:59;;;;;;;2.60;2.40;;;21.20;57.30;;;;;;4936137;29;20466;-83
2023/12/29 03:54:28;;;;;;;2.10;2.00;;;21.10;57.40;;;;;;4934663;29;20970;-84
2023/12/29 03:56:56;;;;;;;2.73;2.53;;;21.20;57.40;;;;;;4933673;29;20796;-84
2023/12/29 03:59:24;;;;;;;2.20;1.97;;;21.20;57.40;;;;;;4922526;29;20478;-83
2023/12/29 04:01:52;;;;;;;2.03;1.93;;;21.20;57.40;;;;;;4934843;29;20453;-83
2023/12/29 04:04:21;;;;;;;2.40;2.20;;;21.20;57.40;;;;;;4928207;29;20554;-84
2023/12/29 04:06:49;;;;;;;2.80;2.60;;;21.20;57.40;;;;;;4926905;29;20472;-83
2023/12/29 04:09:19;;;;;;;2.83;2.53;;;21.20;57.20;;;;;;4927861;29;20469;-84
2023/12/29 04:11:47;;;;;;;2.53;2.33;;;21.20;57.10;;;;;;4916811;29;20465;-84
2023/12/29 04:14:17;;;;;;;2.50;2.40;;;21.10;57.00;;;;;;4934248;29;20487;-83
2023/12/29 04:16:45;;;;;;;2.47;2.33;;;21.10;56.90;;;;;;4939735;29;20446;-84
2023/12/29 04:19:13;;;;;;;2.10;2.00;;;21.10;56.90;;;;;;4928176;29;20448;-83
2023/12/29 04:21:43;;;;;;;2.33;2.23;;;21.10;57.10;;;;;;4922961;29;20475;-84
2023/12/29 04:24:11;;;;;;;3.10;2.90;;;21.10;57.10;;;;;;4901195;29;20581;-84
2023/12/29 04:26:41;;;;;;;2.60;2.40;;;21.00;57.00;;;;;;4912390;29;20487;-86
2023/12/29 04:29:09;;;;;;;2.40;2.20;;;21.00;57.40;;;;;;4914711;29;20481;-85
2023/12/29 04:31:37;;;;;;;2.20;2.10;;;21.00;57.40;;;;;;4911738;29;20461;-83
2023/12/29 04:34:06;;;;;;;2.60;2.40;;;21.00;57.20;;;;;;4918747;29;20455;-83
2023/12/29 04:36:34;;;;;;;2.20;2.10;;;21.00;57.40;;;;;;4898098;29;20861;-84
2023/12/29 04:39:02;;;;;;;1.70;1.60;;;21.00;57.40;;;;;;4915065;29;20447;-83
2023/12/29 04:41:30;;;;;;;2.10;2.00;;;21.10;57.40;;;;;;4909353;29;20548;-86
2023/12/29 04:44:00;;;;;;;2.40;2.20;;;21.10;57.30;;;;;;4907971;29;20469;-83
2023/12/29 04:46:28;;;;;;;3.73;2.30;;;21.00;57.40;;;;;;4904131;29;20510;-84
2023/12/29 04:48:56;;;;;;;2.00;1.90;;;21.10;57.30;;;;;;4911310;29;20921;-85
2023/12/29 04:51:25;;;;;;;2.00;1.90;;;21.10;57.30;;;;;;4902275;29;20460;-85
2023/12/29 04:53:53;;;;;;;2.23;2.13;;;21.10;57.30;;;;;;4903162;29;20495;-84
2023/12/29 04:56:21;;;;;;;2.30;2.10;;;21.10;57.30;;;;;;4902769;29;20477;-84
2023/12/29 04:58:52;;;;;;;1.60;1.50;;;21.10;57.20;;;;;;4916318;29;20980;-83
2023/12/29 05:01:22;;;;;;;2.03;1.93;;;21.10;57.20;;;;;;4909012;29;20469;-84
2023/12/29 05:03:50;;;;;;;1.87;1.77;;;21.10;57.20;;;;;;4896899;29;20478;-85
2023/12/29 05:06:18;;;;;;;2.20;2.00;;;21.10;57.30;;;;;;4912478;29;20463;-83
2023/12/29 05:08:47;;;;;;;2.10;2.00;;;21.10;57.30;;;;;;4917764;29;20465;-84
2023/12/29 05:11:15;;;;;;;2.50;2.40;;;21.10;57.30;;;;;;4908567;29;20489;-83
2023/12/29 05:13:43;;;;;;;2.10;2.00;;;21.10;57.30;;;;;;4915271;29;20507;-84
2023/12/29 05:16:11;;;;;;;2.13;2.03;;;21.20;57.30;;;;;;4890858;29;20534;-84
2023/12/29 05:18:41;;;;;;;1.87;1.77;;;21.20;57.20;;;;;;4917372;29;20485;-86
2023/12/29 05:21:15;;;;;;;2.17;1.97;;;21.20;57.20;;;;;;4914303;29;21243;-83
2023/12/29 05:23:45;;;;;;;2.00;1.90;;;21.30;57.10;;;;;;4933721;29;20499;-83
2023/12/29 05:26:13;;;;;;;1.90;1.80;;;21.30;57.10;;;;;;4936127;29;20477;-85
2023/12/29 05:28:41;;;;;;;2.73;2.53;;;21.40;56.90;;;;;;4927523;29;20474;-84
2023/12/29 05:31:10;;;;;;;2.17;2.00;;;21.40;56.80;;;;;;4923855;29;20477;-87
2023/12/29 05:33:38;;;;;;;2.37;2.17;;;21.40;56.60;;;;;;4933134;29;20507;-84
2023/12/29 05:36:09;;;;;;;2.30;1.97;;;21.50;56.40;;;;;;4935364;29;20486;-86
2023/12/29 05:38:39;;;;;;;2.20;2.00;;;21.50;56.40;;;;;;4948213;29;20529;-84
2023/12/29 05:41:08;;;;;;;2.93;2.73;;;21.60;56.30;;;;;;4939659;29;20470;-88
2023/12/29 05:43:36;;;;;;;2.30;2.20;;;21.60;56.50;;;;;;4934091;29;20471;-84
2023/12/29 05:46:10;;;;;;;2.33;2.00;;;21.70;56.40;;;;;;4920151;29;20498;-83
2023/12/29 05:48:39;;;;;;;2.07;1.97;;;21.70;56.30;;;;;;4937393;29;20469;-84
2023/12/29 05:51:10;;;;;;;2.90;2.70;;;21.80;56.20;;;;;;4938142;29;20969;-84
2023/12/29 05:53:41;;;;;;;2.20;2.10;;;21.80;55.80;;;;;;4932865;29;20463;-83
2023/12/29 05:56:10;;;;;;;2.10;2.00;;;21.90;55.70;;;;;;4937226;29;20486;-85
2023/12/29 05:58:38;;;;;;;2.63;2.43;;;21.90;55.80;;;;;;4934529;29;20470;-84
2023/12/29 06:01:06;;;;;;;2.50;2.20;;;22.00;55.60;;;;;;4932186;29;20463;-84
2023/12/29 06:03:35;;;;;;;2.30;2.17;;;22.00;55.90;;;;;;4938172;29;20475;-86
2023/12/29 06:06:03;;;;;;;2.43;2.23;;;22.00;55.90;;;;;;4933299;29;20527;-88
2023/12/29 06:08:33;;;;;;;2.23;2.13;;;22.10;55.70;;;;;;4938059;28;20511;-84
2023/12/29 06:11:01;;;;;;;2.50;2.30;;;22.10;55.40;;;;;;4931790;29;20940;-84
2023/12/29 06:13:30;;;;;;;2.20;2.10;;;22.10;55.10;;;;;;4935412;29;20955;-84
2023/12/29 06:15:58;;;;;;;2.40;2.30;;;22.10;55.10;;;;;;4936659;29;20493;-84
2023/12/29 06:18:26;;;;;;;2.50;2.30;;;22.10;55.00;;;;;;4924324;29;20479;-85
2023/12/29 06:20:55;;;;;;;2.47;2.33;;;22.10;55.00;;;;;;4930765;29;20472;-84
2023/12/29 06:23:25;;;;;;;3.10;2.90;;;22.00;55.10;;;;;;4934235;29;20499;-84
2023/12/29 06:25:55;;;;;;;2.27;2.17;;;22.00;55.10;;;;;;4931941;29;20974;-83
2023/12/29 06:28:23;;;;;;;2.20;2.10;;;21.90;55.20;;;;;;4932193;29;20463;-83
2023/12/29 06:30:51;;;;;;;2.20;2.10;;;21.90;55.20;;;;;;4931650;29;20459;-84
2023/12/29 06:33:20;;;;;;;2.77;2.57;;;21.80;55.30;;;;;;4928583;29;20481;-84
2023/12/29 06:35:49;;;;;;;2.33;2.13;;;21.80;55.50;;;;;;4924436;29;20484;-84
2023/12/29 06:38:17;;;;;;;2.53;2.33;;;21.70;55.60;;;;;;4926608;29;20472;-85
2023/12/29 06:40:46;;;;;;;2.37;2.27;;;21.70;55.80;;;;;;4931288;29;21122;-83
2023/12/29 06:43:16;;;;;;;2.63;2.43;;;21.70;56.10;;;;;;4935352;29;20940;-85
2023/12/29 06:45:44;;;;;;;2.30;2.10;;;21.70;56.00;;;;;;4936371;29;20547;-83
2023/12/29 06:48:12;;;;;;;2.70;2.10;;;21.70;56.10;;;;;;4933323;29;20611;-83
2023/12/29 06:50:41;;;;;;;2.57;2.37;;;21.60;56.20;;;;;;4930552;29;20575;-84
2023/12/29 06:53:09;;;;;;;2.53;2.33;;;21.70;56.30;;;;;;4919310;29;20468;-84
2023/12/29 06:55:38;;;;;;;2.03;1.83;;;21.70;56.10;;;;;;4921985;29;20484;-84
2023/12/29 06:58:06;;;;;;;2.00;1.90;;;21.70;56.20;;;;;;4925212;29;20470;-84
2023/12/29 07:00:36;;;;;;;2.20;2.00;;;21.70;56.40;;;;;;4932625;29;20483;-84
2023/12/29 07:03:04;;;;;;;2.20;2.07;;;21.70;56.10;;;;;;4928592;29;20463;-85
2023/12/29 07:05:33;;;;;;;2.40;2.20;;;21.70;56.10;;;;;;4926623;29;20841;-84
2023/12/29 07:08:01;;;;;;;2.60;2.40;;;21.70;56.10;;;;;;4943832;29;20467;-84
2023/12/29 07:10:30;;;;;;;2.50;2.37;;;21.70;56.10;;;;;;4929070;29;20471;-83
2023/12/29 07:12:58;;;;;;;2.37;2.17;;;21.70;55.90;;;;;;4930750;29;20534;-83
2023/12/29 07:15:26;;;;;;;1.80;1.70;;;21.70;56.10;;;;;;4943495;29;20560;-84
2023/12/29 07:17:56;;;;;;;2.60;2.40;;;21.80;56.00;;;;;;4919576;29;20471;-84
2023/12/29 07:20:25;;;;;;;2.30;2.20;;;21.80;56.00;;;;;;4928259;29;20553;-84
2023/12/29 07:22:56;;;;;;;2.70;2.17;;;21.80;56.00;;;;;;4929734;29;20505;-84
2023/12/29 07:25:24;;;;;;;2.20;2.10;;;21.80;56.10;;;;;;4925180;29;20483;-84
2023/12/29 07:27:53;;;;;;;2.20;2.10;;;21.80;56.00;;;;;;4930987;29;20468;-83
2023/12/29 07:30:21;;;;;;;2.83;2.60;;;21.80;56.00;;;;;;4931942;29;20474;-85
2023/12/29 07:32:51;;;;;;;2.67;2.47;;;21.80;56.00;;;;;;4919729;29;20464;-85
2023/12/29 07:35:20;;;;;;;2.43;2.23;;;21.80;56.10;;;;;;4924944;29;20471;-84
2023/12/29 07:37:49;;;;;;;2.30;2.10;;;21.80;56.00;;;;;;4934985;29;20837;-84
2023/12/29 07:40:18;;;;;;;3.80;2.73;;;21.90;56.20;;;;;;4933048;29;20442;-86
2023/12/29 07:42:50;;;;;;;1.87;1.77;;;21.90;56.00;;;;;;4932595;29;20555;-85
2023/12/29 07:45:18;;;;;;;2.23;2.13;;;21.90;56.00;;;;;;4942004;29;20473;-86
2023/12/29 07:47:47;;;;;;;2.70;2.50;;;21.90;55.90;;;;;;4925167;29;20498;-84
2023/12/29 07:50:15;;;;;;;2.20;2.00;;;21.90;56.00;;;;;;4915957;29;20464;-83
2023/12/29 07:52:45;;;;;;;2.30;2.20;;;22.00;56.20;;;;;;4944919;29;20443;-87
2023/12/29 07:55:16;;;;;;;2.53;1.97;;;22.00;56.10;;;;;;4930692;29;20462;-84
2023/12/29 07:57:46;;;;;;;2.70;2.50;;;22.00;56.10;;;;;;4940616;29;20483;-84
2023/12/29 08:00:16;;;;;;;4.17;2.00;;;21.90;56.20;;;;;;4929445;29;20501;-84
2023/12/29 08:02:44;;;;;;;2.03;1.90;;;21.90;56.00;;;;;;4930964;29;20463;-83
2023/12/29 08:05:14;;;;;;;1.83;1.73;;;21.90;56.20;;;;;;4923768;29;20463;-88
2023/12/29 08:07:43;;;;;;;2.50;2.00;;;21.90;56.20;;;;;;4931970;29;20467;-83
2023/12/29 08:10:12;;;;;;;2.03;1.83;;;21.90;56.20;;;;;;4933849;29;21063;-84
2023/12/29 08:12:41;;;;;;;1.80;1.70;;;21.90;56.20;;;;;;4919783;29;20500;-84
2023/12/29 08:15:09;;;;;;;2.23;2.13;;;21.80;56.20;;;;;;4921728;29;20464;-84
2023/12/29 08:17:38;;;;;;;2.03;1.93;;;21.80;56.30;;;;;;4925893;29;20594;-87
2023/12/29 08:20:08;;;;;;;2.10;1.73;;;21.80;56.30;;;;;;4929564;29;20472;-84
2023/12/29 08:22:37;;;;;;;1.50;1.40;;;21.80;56.30;;;;;;4928608;29;20550;-84
2023/12/29 08:25:06;;;;;;;2.00;1.90;;;21.80;56.30;;;;;;4918646;29;20520;-86
2023/12/29 08:27:36;;;;;;;1.53;1.43;;;21.80;56.30;;;;;;4930599;29;20479;-83
2023/12/29 08:30:05;;;;;;;2.10;1.90;;;21.80;56.40;;;;;;4926951;29;20918;-84
2023/12/29 08:32:34;;;;;;;2.47;2.20;;;21.80;56.40;;;;;;4925007;29;20552;-83
2023/12/29 08:35:03;;;;;;;2.53;2.03;;;21.80;56.40;;;;;;4923693;29;20843;-83
2023/12/29 08:37:33;;;;;;;2.80;2.00;;;21.90;56.40;;;;;;4929940;29;20483;-84
2023/12/29 08:40:01;;;;;;;1.80;1.70;;;21.90;56.40;;;;;;4929557;29;20459;-84
2023/12/29 08:42:30;;;;;;;3.10;1.87;;;21.90;56.40;;;;;;4928525;29;21063;-83
2023/12/29 08:45:01;;;;;;;2.47;2.27;;;21.90;56.30;;;;;;4927367;29;20518;-87
2023/12/29 08:47:29;;;;;;;2.00;1.90;;;22.00;56.30;;;;;;4919389;29;20501;-83
2023/12/29 08:49:57;;;;;;;2.00;1.90;;;22.00;56.30;;;;;;4922833;29;20467;-84
2023/12/29 08:52:26;;;;;;;3.60;1.80;;;22.00;56.30;;;;;;4926162;29;20480;-84
2023/12/29 08:54:54;;;;;;;1.77;1.67;;;22.00;56.30;;;;;;4911876;29;21388;-84
2023/12/29 08:57:23;;;;;;;2.03;1.83;;;22.00;56.30;;;;;;4931139;29;20998;-84
2023/12/29 08:59:51;;;;;;;1.90;1.80;;;22.10;56.20;;;;;;4931220;29;20466;-84
2023/12/29 09:02:20;;;;;;;2.10;1.87;;;22.10;56.20;;;;;;4924711;29;20463;-83
2023/12/29 09:04:48;;;;;;;2.00;1.90;;;22.10;56.20;;;;;;4925209;29;20471;-83
2023/12/29 09:07:20;;;;;;;1.80;1.70;;;22.10;56.20;;;;;;4929901;29;20459;-83
2023/12/29 09:09:48;;;;;;;1.50;1.40;;;22.10;56.20;;;;;;4931059;29;20459;-84
2023/12/29 09:12:16;;;;;;;2.07;1.97;;;22.10;56.10;;;;;;4925378;29;21007;-83
2023/12/29 09:14:45;;;;;;;2.00;1.83;;;22.10;56.10;;;;;;4927173;29;20456;-83
2023/12/29 09:17:13;;;;;;;2.47;2.37;;;22.10;56.10;;;;;;4924535;29;20541;-83
2023/12/29 09:19:42;;;;;;;2.00;1.90;;;22.10;56.20;;;;;;4931826;29;20872;-83
2023/12/29 09:22:14;;;;;;;2.20;2.03;;;22.20;56.20;;;;;;4925759;29;20534;-83
2023/12/29 09:24:43;;;;;;;2.27;1.80;;;22.20;56.20;;;;;;4929762;29;20860;-83
2023/12/29 09:27:12;;;;;;;1.83;1.60;;;22.10;56.20;;;;;;4924994;29;20475;-83
2023/12/29 09:29:40;;;;;;;2.00;1.90;;;22.20;56.20;;;;;;4926816;29;20547;-83
2023/12/29 09:32:09;;;;;;;3.40;2.27;;;22.20;56.10;;;;;;4924443;29;20455;-84
2023/12/29 09:34:37;;;;;;;2.30;2.00;;;22.20;56.10;;;;;;4923591;29;20526;-85
2023/12/29 09:37:06;;;;;;;2.27;2.07;;;22.20;56.20;;;;;;4921408;29;20520;-84
2023/12/29 09:39:35;;;;;;;2.00;1.90;;;22.20;56.10;;;;;;4925647;29;20494;-84
2023/12/29 09:42:06;;;;;;;1.80;1.70;;;22.20;56.20;;;;;;4908091;29;20567;-82
2023/12/29 09:44:37;;;;;;;1.93;1.83;;;22.20;56.20;;;;;;4932604;29;20476;-83
2023/12/29 09:47:07;;;;;;;2.30;1.90;;;22.20;56.20;;;;;;4939020;29;20471;-85
2023/12/29 09:49:39;;;;;;;2.57;1.60;;;22.20;56.30;;;;;;4940784;29;20533;-84
2023/12/29 09:52:13;;;;;;;2.40;2.30;;;22.20;56.40;;;;;;4930180;29;20964;-84
2023/12/29 09:54:42;;;;;;;2.10;1.90;;;22.20;56.40;;;;;;4928464;29;20514;-86
2023/12/29 09:57:11;;;;;;;2.17;2.07;;;22.20;56.30;;;;;;4929288;29;20514;-84
2023/12/29 09:59:41;;;;;;;2.00;1.60;;;22.30;56.30;;;;;;4931799;29;20471;-85
2023/12/29 10:02:13;;;;;;;3.20;2.27;;;22.30;56.30;;;;;;4929540;29;20563;-83
2023/12/29 10:04:41;;;;;;;2.60;2.33;;;22.30;56.20;;;;;;4933672;29;20523;-84
2023/12/29 10:07:18;;;;;;;2.23;2.07;;;22.30;56.20;;;;;;4928794;29;20468;-85
2023/12/29 10:09:48;;;;;;;3.53;2.20;;;22.40;56.20;;;;;;4933467;29;20463;-84
2023/12/29 10:12:17;;;;;;;1.87;1.77;;;22.40;56.20;;;;;;4925975;29;20568;-85
2023/12/29 10:14:50;;;;;;;1.90;1.80;;;22.40;56.20;;;;;;4932135;29;20534;-85
2023/12/29 10:17:29;;;;;;;2.40;1.97;;;22.40;56.20;;;;;;4930843;29;20574;-84
2023/12/29 10:20:10;;;;;;;5.10;2.10;;;22.40;56.30;;;;;;4935787;29;20463;-84
2023/12/29 10:22:48;;;;;;;4.30;2.00;;;22.40;56.20;;;;;;4922722;29;20523;-85
2023/12/29 10:25:17;;;;;;;2.07;1.80;;;22.40;56.30;;;;;;4931629;29;20496;-84
2023/12/29 10:27:46;;;;;;;4.17;2.23;;;22.40;56.30;;;;;;4930500;29;20503;-83
2023/12/29 10:30:15;;;;;;;4.90;2.60;;;22.30;56.40;;;;;;4933826;29;20575;-86
2023/12/29 10:32:56;;;;;;;2.37;2.10;;;22.30;56.50;;;;;;4933596;29;20538;-84
2023/12/29 10:35:24;;;;;;;3.03;2.33;;;22.30;56.60;;;;;;4930935;29;20540;-83
2023/12/29 10:38:09;;;;;;;4.13;2.40;;;22.30;56.60;;;;;;4933159;29;20491;-85
2023/12/29 10:40:37;;;;;;;5.97;2.23;;;22.20;56.70;;;;;;4924748;29;20825;-85
2023/12/29 10:43:07;;;;;;;2.57;1.90;;;22.20;56.80;;;;;;4930227;29;20515;-84
2023/12/29 10:45:36;;;;;;;8.33;2.50;;;22.20;56.90;;;;;;4935032;29;20444;-86
2023/12/29 10:48:06;;;;;;;2.50;2.30;;;22.20;56.90;;;;;;4933760;29;20474;-83
2023/12/29 10:50:43;;;;;;;2.73;2.30;;;22.20;56.90;;;;;;4936016;29;20452;-87
2023/12/29 10:53:14;;;;;;;2.40;2.10;;;22.30;57.00;;;;;;4928773;29;20451;-84
2023/12/29 10:55:42;;;;;;;6.17;2.93;;;22.40;57.00;;;;;;4934369;29;20878;-84
2023/12/29 10:58:11;;;;;;;2.00;1.80;;;22.40;56.90;;;;;;4934780;29;20991;-84
2023/12/29 11:00:39;;;;;;;4.50;1.97;;;22.50;56.90;;;;;;4934219;29;20488;-86
2023/12/29 11:03:08;;;;;;;5.93;2.20;;;22.60;56.60;;;;;;4917859;29;20460;-84
2023/12/29 11:05:36;;;;;;;2.27;2.07;;;22.70;56.40;;;;;;4927179;29;21066;-84
2023/12/29 11:08:19;;;;;;;3.07;2.10;;;22.80;56.20;;;;;;4930093;29;20553;-83
2023/12/29 11:10:49;;;;;;;5.77;2.60;;;22.90;56.20;;;;;;4929821;29;20516;-84
2023/12/29 11:13:18;;;;;;;4.67;1.90;;;22.90;56.00;;;;;;4933405;29;20487;-85
2023/12/29 11:15:48;;;;;;;2.77;2.30;;;22.90;56.00;;;;;;4928055;29;20833;-85
2023/12/29 11:18:18;;;;;;;5.13;2.30;;;22.90;56.00;;;;;;4928956;29;20471;-84
2023/12/29 11:20:47;;;;;;;6.17;2.40;;;22.90;56.00;;;;;;4928944;29;20460;-84
2023/12/29 11:23:15;;;;;;;3.10;2.80;;;23.00;55.90;;;;;;4929453;29;20505;-84
2023/12/29 11:25:47;;;;;;;3.70;2.10;;;22.90;55.90;;;;;;4924010;29;20543;-84
2023/12/29 11:28:15;;;;;;;10.40;2.40;;;22.90;55.90;;;;;;4925357;29;20516;-84
2023/12/29 11:30:44;;;;;;;5.23;2.37;;;22.90;55.90;;;;;;4925326;29;20471;-84
2023/12/29 11:33:18;;;;;;;3.47;2.40;;;22.90;55.90;;;;;;4935212;29;20945;-83
2023/12/29 11:35:51;;;;;;;3.63;2.50;;;22.90;55.90;;;;;;4930128;29;20471;-85
2023/12/29 11:38:34;;;;;;;6.67;2.30;;;22.90;56.00;;;;;;4913850;29;20473;-87
2023/12/29 11:41:10;;;;;;;6.03;2.43;;;22.90;56.00;;;;;;4934314;29;20456;-85
2023/12/29 11:43:38;;;;;;;3.73;2.30;;;22.80;56.10;;;;;;4930301;29;20860;-85
2023/12/29 11:46:06;;;;;;;4.93;2.47;;;22.70;56.10;;;;;;4931167;29;20479;-86
2023/12/29 11:48:57;;;;;;;2.80;1.87;;;22.70;56.20;;;;;;4943603;29;20461;-86
2023/12/29 11:51:29;;;;;;;4.70;2.17;;;22.60;56.40;;;;;;4951548;29;20432;-86
2023/12/29 11:53:58;;;;;;;3.53;2.67;;;22.60;56.60;;;;;;4940677;29;20447;-86
2023/12/29 11:56:32;;;;;;;3.57;2.70;;;22.50;56.70;;;;;;4922768;29;20473;-86
2023/12/29 11:59:20;;;;;;;3.83;2.10;;;22.50;56.70;;;;;;4927285;29;20478;-88
2023/12/29 12:01:52;;;;;;;2.20;1.93;;;22.50;56.80;;;;;;4931316;29;20480;-86
2023/12/29 12:04:45;;;;;;;4.23;2.20;;;22.40;56.90;;;;;;4928605;29;20463;-88
2023/12/29 12:07:38;;;;;;;2.30;2.10;;;22.40;56.90;;;;;;4903010;29;20464;-89
2023/12/29 12:10:31;;;;;;;2.60;1.93;;;22.40;56.90;;;;;;4928149;29;20491;-85
2023/12/29 12:13:02;;;;;;;3.17;2.90;;;22.40;56.80;;;;;;4923736;29;20481;-86
2023/12/29 12:15:34;;;;;;;2.30;2.07;;;22.40;56.90;;;;;;4928975;29;20491;-86
2023/12/29 12:18:05;;;;;;;2.30;2.10;;;22.40;56.90;;;;;;4928672;29;20515;-86
2023/12/29 12:20:34;;;;;;;4.23;2.00;;;22.40;56.80;;;;;;4915044;29;20484;-86
2023/12/29 12:23:05;;;;;;;2.00;1.90;;;22.50;56.80;;;;;;4933477;29;20496;-88
2023/12/29 12:25:34;;;;;;;2.13;2.03;;;22.50;56.80;;;;;;4931566;29;20830;-85
2023/12/29 12:28:06;;;;;;;2.00;1.43;;;22.50;56.80;;;;;;4914905;29;20455;-85
2023/12/29 12:30:36;;;;;;;3.30;1.90;;;22.60;56.60;;;;;;4932878;29;20468;-85
2023/12/29 12:33:05;;;;;;;1.90;1.80;;;22.70;56.50;;;;;;4930001;29;20472;-85
2023/12/29 12:35:35;;;;;;;2.10;1.97;;;22.70;56.40;;;;;;4935288;29;20475;-87
2023/12/29 12:38:10;;;;;;;1.60;1.30;;;22.70;56.40;;;;;;4931817;29;20511;-87
2023/12/29 12:40:39;;;;;;;2.10;1.90;;;22.70;56.40;;;;;;4929097;29;20493;-85
2023/12/29 12:43:08;;;;;;;2.13;1.57;;;22.70;56.30;;;;;;4927296;29;20661;-85
2023/12/29 12:45:43;;;;;;;2.50;1.73;;;22.70;56.30;;;;;;4928055;29;20468;-85
2023/12/29 12:48:19;;;;;;;2.30;2.10;;;22.60;56.30;;;;;;4928856;29;20461;-86
2023/12/29 12:50:48;;;;;;;1.97;1.87;;;22.60;56.40;;;;;;4932820;29;21007;-86
2023/12/29 12:53:20;;;;;;;2.43;2.23;;;22.60;56.40;;;;;;4930862;29;20457;-85
2023/12/29 12:55:50;;;;;;;2.50;2.03;;;22.50;56.50;;;;;;4929770;29;20467;-85
2023/12/29 12:58:21;;;;;;;1.80;1.53;;;22.50;56.50;;;;;;4934482;29;20952;-85
2023/12/29 13:00:50;;;;;;;2.10;1.90;;;22.50;56.50;;;;;;4934096;29;20507;-86
2023/12/29 13:03:23;;;;;;;2.67;2.10;;;22.50;56.50;;;;;;4930873;29;21023;-85